sensor_id;sensor_type;location;lat;lon;timestamp;pressure;altitude;pressure_sealevel;temperature;humidity
21594;BME280;10959;51.328;7.322;2023-01-27T00:00:48;99324.13;;;3.94;90.81
21594;BME280;10959;51.328;7.322;2023-01-27T00:03:14;99333.03;;;3.90;90.92
21594;BME280;10959;51.328;7.322;2023-01-27T00:05:41;99332.97;;;3.96;90.78
21594;BME280;10959;51.328;7.322;2023-01-27T00:08:07;99326.69;;;4.02;90.77
21594;BME280;10959;51.328;7.322;2023-01-27T00:10:34;99333.97;;;3.86;90.53
21594;BME280;10959;51.328;7.322;2023-01-27T00:13:02;99328.69;;;3.84;90.93
21594;BME280;10959;51.328;7.322;2023-01-27T00:15:46;99334.19;;;3.72;91.45
21594;BME280;10959;51.328;7.322;2023-01-27T00:18:12;99343.28;;;3.55;91.52
21594;BME280;10959;51.328;7.322;2023-01-27T00:20:39;99341.63;;;3.45;91.60
21594;BME280;10959;51.328;7.322;2023-01-27T00:23:25;99341.63;;;3.45;92.24
21594;BME280;10959;51.328;7.322;2023-01-27T00:26:11;99345.84;;;3.61;91.66
21594;BME280;10959;51.328;7.322;2023-01-27T00:28:40;99346.31;;;3.24;91.76
21594;BME280;10959;51.328;7.322;2023-01-27T00:31:09;99352.53;;;3.23;92.72
21594;BME280;10959;51.328;7.322;2023-01-27T00:33:53;99355.25;;;3.19;92.55
21594;BME280;10959;51.328;7.322;2023-01-27T00:36:26;99350.88;;;3.10;92.68
21594;BME280;10959;51.328;7.322;2023-01-27T00:38:52;99348.91;;;3.31;92.12
21594;BME280;10959;51.328;7.322;2023-01-27T00:41:19;99350.59;;;3.38;91.98
21594;BME280;10959;51.328;7.322;2023-01-27T00:43:50;99360.63;;;3.11;91.71
21594;BME280;10959;51.328;7.322;2023-01-27T00:46:17;99354.13;;;3.37;91.80
21594;BME280;10959;51.328;7.322;2023-01-27T00:48:44;99339.97;;;3.35;91.33
21594;BME280;10959;51.328;7.322;2023-01-27T00:51:11;99351.38;;;3.46;90.76
21594;BME280;10959;51.328;7.322;2023-01-27T00:53:39;99349.81;;;3.26;91.71
21594;BME280;10959;51.328;7.322;2023-01-27T00:56:06;99354.06;;;3.46;91.66
21594;BME280;10959;51.328;7.322;2023-01-27T00:58:33;99349.56;;;3.48;91.07
21594;BME280;10959;51.328;7.322;2023-01-27T01:01:03;99352.13;;;3.57;90.76
21594;BME280;10959;51.328;7.322;2023-01-27T01:03:31;99349.47;;;3.57;90.82
21594;BME280;10959;51.328;7.322;2023-01-27T01:05:58;99354.00;;;3.49;91.14
21594;BME280;10959;51.328;7.322;2023-01-27T01:08:25;99356.59;;;3.55;91.51
21594;BME280;10959;51.328;7.322;2023-01-27T01:10:51;99360.97;;;3.59;91.35
21594;BME280;10959;51.328;7.322;2023-01-27T01:13:18;99360.50;;;3.23;92.31
21594;BME280;10959;51.328;7.322;2023-01-27T01:15:46;99363.28;;;3.11;93.69
21594;BME280;10959;51.328;7.322;2023-01-27T01:18:14;99359.66;;;3.18;93.38
21594;BME280;10959;51.328;7.322;2023-01-27T01:20:43;99366.63;;;3.32;93.05
21594;BME280;10959;51.328;7.322;2023-01-27T01:23:11;99364.31;;;2.98;94.31
21594;BME280;10959;51.328;7.322;2023-01-27T01:25:38;99359.84;;;3.00;94.91
21594;BME280;10959;51.328;7.322;2023-01-27T01:28:06;99372.28;;;3.01;95.64
21594;BME280;10959;51.328;7.322;2023-01-27T01:30:33;99361.63;;;3.01;96.04
21594;BME280;10959;51.328;7.322;2023-01-27T01:33:00;99370.59;;;2.90;96.56
21594;BME280;10959;51.328;7.322;2023-01-27T01:35:28;99378.06;;;2.45;97.10
21594;BME280;10959;51.328;7.322;2023-01-27T01:37:55;99374.28;;;2.74;97.49
21594;BME280;10959;51.328;7.322;2023-01-27T01:40:21;99379.59;;;2.74;96.50
21594;BME280;10959;51.328;7.322;2023-01-27T01:42:53;99380.34;;;2.93;95.58
21594;BME280;10959;51.328;7.322;2023-01-27T01:45:51;99376.94;;;2.75;94.77
21594;BME280;10959;51.328;7.322;2023-01-27T01:48:25;99380.38;;;2.85;95.01
21594;BME280;10959;51.328;7.322;2023-01-27T01:50:57;99386.81;;;2.59;95.42
21594;BME280;10959;51.328;7.322;2023-01-27T01:53:28;99375.16;;;2.78;95.86
21594;BME280;10959;51.328;7.322;2023-01-27T01:56:00;99379.53;;;2.83;95.42
21594;BME280;10959;51.328;7.322;2023-01-27T01:58:29;99379.47;;;2.89;95.09
21594;BME280;10959;51.328;7.322;2023-01-27T02:00:56;99374.22;;;2.83;94.86
21594;BME280;10959;51.328;7.322;2023-01-27T02:03:23;99379.50;;;2.86;94.85
21594;BME280;10959;51.328;7.322;2023-01-27T02:05:51;99384.78;;;2.89;94.70
21594;BME280;10959;51.328;7.322;2023-01-27T02:08:23;99383.94;;;2.84;94.09
21594;BME280;10959;51.328;7.322;2023-01-27T02:10:51;99383.94;;;2.83;94.72
21594;BME280;10959;51.328;7.322;2023-01-27T02:13:18;99385.66;;;2.90;94.33
21594;BME280;10959;51.328;7.322;2023-01-27T02:15:45;99386.44;;;3.03;94.05
21594;BME280;10959;51.328;7.322;2023-01-27T02:18:12;99388.06;;;3.19;94.01
21594;BME280;10959;51.328;7.322;2023-01-27T02:20:42;99385.53;;;3.05;93.37
21594;BME280;10959;51.328;7.322;2023-01-27T02:23:18;99377.63;;;2.98;92.80
21594;BME280;10959;51.328;7.322;2023-01-27T02:25:50;99386.31;;;3.15;93.14
21594;BME280;10959;51.328;7.322;2023-01-27T02:28:19;99379.22;;;3.14;92.75
21594;BME280;10959;51.328;7.322;2023-01-27T02:30:45;99384.50;;;3.20;92.87
21594;BME280;10959;51.328;7.322;2023-01-27T02:33:12;99382.84;;;3.07;92.80
21594;BME280;10959;51.328;7.322;2023-01-27T02:35:43;99377.47;;;3.13;92.77
21594;BME280;10959;51.328;7.322;2023-01-27T02:38:12;99369.44;;;3.18;92.76
21594;BME280;10959;51.328;7.322;2023-01-27T02:40:41;99375.66;;;3.15;92.67
21594;BME280;10959;51.328;7.322;2023-01-27T02:43:09;99375.78;;;3.06;92.74
21594;BME280;10959;51.328;7.322;2023-01-27T02:45:36;99370.34;;;3.15;92.63
21594;BME280;10959;51.328;7.322;2023-01-27T02:48:02;99381.00;;;3.14;92.63
21594;BME280;10959;51.328;7.322;2023-01-27T02:50:29;99374.13;;;2.92;93.38
21594;BME280;10959;51.328;7.322;2023-01-27T02:52:56;99375.84;;;2.97;92.74
21594;BME280;10959;51.328;7.322;2023-01-27T02:55:22;99370.53;;;2.97;93.40
21594;BME280;10959;51.328;7.322;2023-01-27T02:57:48;99379.41;;;2.96;93.44
21594;BME280;10959;51.328;7.322;2023-01-27T03:00:17;99375.78;;;3.06;93.23
21594;BME280;10959;51.328;7.322;2023-01-27T03:02:43;99384.75;;;2.92;93.13
21594;BME280;10959;51.328;7.322;2023-01-27T03:05:10;99374.00;;;3.05;93.52
21594;BME280;10959;51.328;7.322;2023-01-27T03:07:36;99375.63;;;3.18;92.85
21594;BME280;10959;51.328;7.322;2023-01-27T03:10:03;99373.81;;;3.23;92.80
21594;BME280;10959;51.328;7.322;2023-01-27T03:12:29;99370.28;;;3.24;92.88
21594;BME280;10959;51.328;7.322;2023-01-27T03:14:56;99375.97;;;2.87;93.87
21594;BME280;10959;51.328;7.322;2023-01-27T03:17:41;99380.38;;;2.85;94.33
21594;BME280;10959;51.328;7.322;2023-01-27T03:20:25;99381.06;;;3.09;94.03
21594;BME280;10959;51.328;7.322;2023-01-27T03:22:51;99370.34;;;3.15;93.38
21594;BME280;10959;51.328;7.322;2023-01-27T03:25:18;99373.78;;;3.26;93.15
21594;BME280;10959;51.328;7.322;2023-01-27T03:27:44;99365.94;;;3.13;92.81
21594;BME280;10959;51.328;7.322;2023-01-27T03:30:11;99385.44;;;3.15;93.02
21594;BME280;10959;51.328;7.322;2023-01-27T03:32:38;99378.22;;;3.26;93.00
21594;BME280;10959;51.328;7.322;2023-01-27T03:35:12;99386.28;;;3.18;93.12
21594;BME280;10959;51.328;7.322;2023-01-27T03:37:40;99382.13;;;2.91;93.95
21594;BME280;10959;51.328;7.322;2023-01-27T03:40:24;99389.25;;;2.84;94.65
21594;BME280;10959;51.328;7.322;2023-01-27T03:43:08;99381.19;;;2.97;94.41
21594;BME280;10959;51.328;7.322;2023-01-27T03:45:52;99379.28;;;3.08;93.94
21594;BME280;10959;51.328;7.322;2023-01-27T03:48:36;99374.81;;;3.13;93.86
21594;BME280;10959;51.328;7.322;2023-01-27T03:51:06;99377.66;;;2.91;93.97
21594;BME280;10959;51.328;7.322;2023-01-27T03:53:33;99382.69;;;3.22;93.55
21594;BME280;10959;51.328;7.322;2023-01-27T03:56:00;99377.56;;;3.04;93.34
21594;BME280;10959;51.328;7.322;2023-01-27T03:58:28;99386.38;;;3.09;93.79
21594;BME280;10959;51.328;7.322;2023-01-27T04:00:56;99389.75;;;3.26;93.46
21594;BME280;10959;51.328;7.322;2023-01-27T04:03:24;99387.16;;;3.22;93.23
21594;BME280;10959;51.328;7.322;2023-01-27T04:06:11;99380.91;;;3.21;93.04
21594;BME280;10959;51.328;7.322;2023-01-27T04:08:56;99373.66;;;3.36;93.17
21594;BME280;10959;51.328;7.322;2023-01-27T04:11:23;99378.22;;;3.26;92.80
21594;BME280;10959;51.328;7.322;2023-01-27T04:14:08;99380.81;;;3.32;92.79
21594;BME280;10959;51.328;7.322;2023-01-27T04:16:35;99378.97;;;3.39;92.56
21594;BME280;10959;51.328;7.322;2023-01-27T04:19:02;99368.41;;;3.29;92.93
21594;BME280;10959;51.328;7.322;2023-01-27T04:21:31;99382.69;;;3.24;92.75
21594;BME280;10959;51.328;7.322;2023-01-27T04:23:58;99381.72;;;3.31;92.91
21594;BME280;10959;51.328;7.322;2023-01-27T04:26:25;99374.56;;;3.36;92.84
21594;BME280;10959;51.328;7.322;2023-01-27T04:28:57;99384.31;;;3.39;92.84
21594;BME280;10959;51.328;7.322;2023-01-27T04:31:23;99387.72;;;3.47;92.60
21594;BME280;10959;51.328;7.322;2023-01-27T04:33:50;99385.88;;;3.55;92.42
21594;BME280;10959;51.328;7.322;2023-01-27T04:36:17;99386.75;;;3.57;92.09
21594;BME280;10959;51.328;7.322;2023-01-27T04:38:44;99392.84;;;3.66;91.76
21594;BME280;10959;51.328;7.322;2023-01-27T04:41:11;99390.34;;;3.55;92.00
21594;BME280;10959;51.328;7.322;2023-01-27T04:43:38;99404.50;;;3.55;92.09
21594;BME280;10959;51.328;7.322;2023-01-27T04:46:04;99391.19;;;3.55;92.25
21594;BME280;10959;51.328;7.322;2023-01-27T04:48:31;99396.44;;;3.61;92.28
21594;BME280;10959;51.328;7.322;2023-01-27T04:50:57;99398.16;;;3.66;91.87
21594;BME280;10959;51.328;7.322;2023-01-27T04:53:24;99392.94;;;3.59;91.93
21594;BME280;10959;51.328;7.322;2023-01-27T04:55:52;99398.34;;;3.53;92.33
21594;BME280;10959;51.328;7.322;2023-01-27T04:58:18;99401.75;;;3.65;92.16
21594;BME280;10959;51.328;7.322;2023-01-27T05:00:44;99394.66;;;3.63;92.35
21594;BME280;10959;51.328;7.322;2023-01-27T05:03:11;99407.88;;;3.71;92.18
21594;BME280;10959;51.328;7.322;2023-01-27T05:05:37;99416.22;;;3.42;92.28
21594;BME280;10959;51.328;7.322;2023-01-27T05:08:05;99420.72;;;3.34;93.52
21594;BME280;10959;51.328;7.322;2023-01-27T05:10:32;99419.91;;;3.25;94.31
21594;BME280;10959;51.328;7.322;2023-01-27T05:13:00;99419.91;;;3.25;94.24
21594;BME280;10959;51.328;7.322;2023-01-27T05:15:27;99421.50;;;3.45;94.21
21594;BME280;10959;51.328;7.322;2023-01-27T05:17:54;99424.19;;;3.42;94.18
21594;BME280;10959;51.328;7.322;2023-01-27T05:20:21;99414.31;;;3.53;93.77
21594;BME280;10959;51.328;7.322;2023-01-27T05:22:49;99421.53;;;3.42;94.30
21594;BME280;10959;51.328;7.322;2023-01-27T05:25:16;99425.13;;;3.38;94.39
21594;BME280;10959;51.328;7.322;2023-01-27T05:27:42;99420.69;;;3.35;94.73
21594;BME280;10959;51.328;7.322;2023-01-27T05:30:11;99425.41;;;3.11;95.25
21594;BME280;10959;51.328;7.322;2023-01-27T05:32:38;99422.66;;;3.19;95.92
21594;BME280;10959;51.328;7.322;2023-01-27T05:35:05;99434.31;;;3.06;95.51
21594;BME280;10959;51.328;7.322;2023-01-27T05:37:32;99422.75;;;3.07;96.48
21594;BME280;10959;51.328;7.322;2023-01-27T05:39:58;99433.41;;;3.07;96.78
21594;BME280;10959;51.328;7.322;2023-01-27T05:42:25;99430.66;;;3.16;96.62
21594;BME280;10959;51.328;7.322;2023-01-27T05:44:51;99432.56;;;3.02;96.99
21594;BME280;10959;51.328;7.322;2023-01-27T05:47:19;99436.97;;;3.06;97.19
21594;BME280;10959;51.328;7.322;2023-01-27T05:49:45;99437.91;;;2.96;97.24
21594;BME280;10959;51.328;7.322;2023-01-27T05:52:12;99437.88;;;3.05;97.25
21594;BME280;10959;51.328;7.322;2023-01-27T05:54:38;99439.69;;;2.97;97.71
21594;BME280;10959;51.328;7.322;2023-01-27T05:57:05;99441.38;;;3.07;97.65
21594;BME280;10959;51.328;7.322;2023-01-27T05:59:31;99436.81;;;3.21;97.21
21594;BME280;10959;51.328;7.322;2023-01-27T06:01:58;99432.50;;;3.08;97.14
21594;BME280;10959;51.328;7.322;2023-01-27T06:04:26;99445.94;;;2.91;97.00
21594;BME280;10959;51.328;7.322;2023-01-27T06:06:52;99448.47;;;3.08;97.48
21594;BME280;10959;51.328;7.322;2023-01-27T06:09:19;99444.84;;;3.15;96.76
21594;BME280;10959;51.328;7.322;2023-01-27T06:11:45;99448.16;;;3.42;96.29
21594;BME280;10959;51.328;7.322;2023-01-27T06:14:12;99441.19;;;3.25;96.20
21594;BME280;10959;51.328;7.322;2023-01-27T06:16:39;99443.03;;;3.20;96.71
21594;BME280;10959;51.328;7.322;2023-01-27T06:19:05;99442.16;;;3.18;96.49
21594;BME280;10959;51.328;7.322;2023-01-27T06:21:33;99437.53;;;3.39;96.04
21594;BME280;10959;51.328;7.322;2023-01-27T06:24:00;99433.88;;;3.49;95.49
21594;BME280;10959;51.328;7.322;2023-01-27T06:26:26;99448.13;;;3.45;95.35
21594;BME280;10959;51.328;7.322;2023-01-27T06:28:55;99443.69;;;3.44;95.21
21594;BME280;10959;51.328;7.322;2023-01-27T06:31:22;99448.25;;;3.29;95.74
21594;BME280;10959;51.328;7.322;2023-01-27T06:33:49;99455.09;;;3.55;95.41
21594;BME280;10959;51.328;7.322;2023-01-27T06:36:18;99464.41;;;3.11;96.21
21594;BME280;10959;51.328;7.322;2023-01-27T06:38:47;99456.25;;;3.28;96.78
21594;BME280;10959;51.328;7.322;2023-01-27T06:41:13;99466.06;;;3.24;97.27
21594;BME280;10959;51.328;7.322;2023-01-27T06:43:40;99469.56;;;3.29;97.23
21594;BME280;10959;51.328;7.322;2023-01-27T06:46:06;99467.91;;;3.18;96.98
21594;BME280;10959;51.328;7.322;2023-01-27T06:48:33;99472.94;;;3.47;97.00
21594;BME280;10959;51.328;7.322;2023-01-27T06:51:01;99478.53;;;3.19;97.11
21594;BME280;10959;51.328;7.322;2023-01-27T06:53:28;99480.44;;;3.05;97.46
21594;BME280;10959;51.328;7.322;2023-01-27T06:55:58;99480.13;;;3.36;97.38
21594;BME280;10959;51.328;7.322;2023-01-27T06:58:25;99477.59;;;3.25;96.92
21594;BME280;10959;51.328;7.322;2023-01-27T07:00:52;99482.06;;;3.20;97.26
21594;BME280;10959;51.328;7.322;2023-01-27T07:03:18;99486.50;;;3.19;98.27
21594;BME280;10959;51.328;7.322;2023-01-27T07:05:45;99494.31;;;3.39;97.57
21594;BME280;10959;51.328;7.322;2023-01-27T07:08:11;99498.06;;;3.15;97.86
21594;BME280;10959;51.328;7.322;2023-01-27T07:10:38;99490.88;;;3.26;98.28
21594;BME280;10959;51.328;7.322;2023-01-27T07:13:06;99497.84;;;3.40;97.96
21594;BME280;10959;51.328;7.322;2023-01-27T07:15:33;99492.75;;;3.15;98.00
21594;BME280;10959;51.328;7.322;2023-01-27T07:18:00;99497.88;;;3.37;98.12
21594;BME280;10959;51.328;7.322;2023-01-27T07:20:27;99497.81;;;3.46;97.93
21594;BME280;10959;51.328;7.322;2023-01-27T07:22:55;99499.69;;;3.35;98.11
21594;BME280;10959;51.328;7.322;2023-01-27T07:25:22;99507.75;;;3.24;97.98
21594;BME280;10959;51.328;7.322;2023-01-27T07:27:49;99504.81;;;3.56;97.45
21594;BME280;10959;51.328;7.322;2023-01-27T07:30:17;99510.19;;;3.50;97.00
21594;BME280;10959;51.328;7.322;2023-01-27T07:32:43;99511.13;;;3.44;97.20
21594;BME280;10959;51.328;7.322;2023-01-27T07:35:10;99510.25;;;3.44;97.38
21594;BME280;10959;51.328;7.322;2023-01-27T07:37:36;99517.22;;;3.57;97.19
21594;BME280;10959;51.328;7.322;2023-01-27T07:40:04;99519.09;;;3.46;97.20
21594;BME280;10959;51.328;7.322;2023-01-27T07:42:30;99524.44;;;3.43;97.67
21594;BME280;10959;51.328;7.322;2023-01-27T07:44:57;99527.28;;;3.24;98.04
21594;BME280;10959;51.328;7.322;2023-01-27T07:47:24;99513.00;;;3.33;98.38
21594;BME280;10959;51.328;7.322;2023-01-27T07:49:51;99524.47;;;3.40;98.70
21594;BME280;10959;51.328;7.322;2023-01-27T07:52:17;99524.38;;;3.52;97.77
21594;BME280;10959;51.328;7.322;2023-01-27T07:54:44;99522.50;;;3.62;97.70
21594;BME280;10959;51.328;7.322;2023-01-27T07:57:10;99518.16;;;3.52;97.23
21594;BME280;10959;51.328;7.322;2023-01-27T07:59:37;99524.25;;;3.61;97.36
21594;BME280;10959;51.328;7.322;2023-01-27T08:02:03;99532.13;;;3.74;97.01
21594;BME280;10959;51.328;7.322;2023-01-27T08:04:31;99536.63;;;3.72;96.96
21594;BME280;10959;51.328;7.322;2023-01-27T08:06:58;99531.31;;;3.69;97.13
21594;BME280;10959;51.328;7.322;2023-01-27T08:09:25;99531.22;;;3.78;96.96
21594;BME280;10959;51.328;7.322;2023-01-27T08:11:52;99531.19;;;3.81;96.76
21594;BME280;10959;51.328;7.322;2023-01-27T08:14:18;99539.97;;;3.89;96.61
21594;BME280;10959;51.328;7.322;2023-01-27T08:16:45;99533.91;;;3.76;96.45
21594;BME280;10959;51.328;7.322;2023-01-27T08:19:11;99540.31;;;3.55;97.70
21594;BME280;10959;51.328;7.322;2023-01-27T08:21:39;99545.66;;;3.52;97.72
21594;BME280;10959;51.328;7.322;2023-01-27T08:24:06;99541.00;;;3.74;97.67
21594;BME280;10959;51.328;7.322;2023-01-27T08:26:34;99552.78;;;3.53;97.81
21594;BME280;10959;51.328;7.322;2023-01-27T08:29:00;99545.38;;;3.80;97.52
21594;BME280;10959;51.328;7.322;2023-01-27T08:31:27;99537.34;;;3.86;97.40
21594;BME280;10959;51.328;7.322;2023-01-27T08:33:53;99539.16;;;3.83;97.44
21594;BME280;10959;51.328;7.322;2023-01-27T08:36:23;99540.06;;;3.83;97.12
21594;BME280;10959;51.328;7.322;2023-01-27T08:38:51;99545.34;;;3.86;97.19
21594;BME280;10959;51.328;7.322;2023-01-27T08:41:20;99545.38;;;3.83;97.63
21594;BME280;10959;51.328;7.322;2023-01-27T08:43:46;99541.78;;;3.84;97.61
21594;BME280;10959;51.328;7.322;2023-01-27T08:46:14;99548.91;;;3.85;97.72
21594;BME280;10959;51.328;7.322;2023-01-27T08:48:41;99540.84;;;3.91;97.58
21594;BME280;10959;51.328;7.322;2023-01-27T08:51:09;99544.47;;;3.84;97.60
21594;BME280;10959;51.328;7.322;2023-01-27T08:53:36;99545.38;;;3.83;97.65
21594;BME280;10959;51.328;7.322;2023-01-27T08:56:06;99540.84;;;3.90;97.92
21594;BME280;10959;51.328;7.322;2023-01-27T08:58:33;99552.34;;;3.96;97.89
21594;BME280;10959;51.328;7.322;2023-01-27T09:01:00;99552.41;;;3.87;97.83
21594;BME280;10959;51.328;7.322;2023-01-27T09:03:27;99550.75;;;3.77;98.30
21594;BME280;10959;51.328;7.322;2023-01-27T09:05:54;99547.09;;;3.90;98.39
21594;BME280;10959;51.328;7.322;2023-01-27T09:08:20;99553.19;;;3.98;98.19
21594;BME280;10959;51.328;7.322;2023-01-27T09:10:47;99563.66;;;4.17;97.27
21594;BME280;10959;51.328;7.322;2023-01-27T09:13:15;99563.09;;;3.86;97.46
21594;BME280;10959;51.328;7.322;2023-01-27T09:15:42;99564.69;;;4.04;97.95
21594;BME280;10959;51.328;7.322;2023-01-27T09:18:10;99563.88;;;3.97;97.90
21594;BME280;10959;51.328;7.322;2023-01-27T09:20:36;99565.56;;;4.07;98.13
21594;BME280;10959;51.328;7.322;2023-01-27T09:23:04;99576.22;;;4.07;97.90
21594;BME280;10959;51.328;7.322;2023-01-27T09:25:31;99577.94;;;4.13;97.61
21594;BME280;10959;51.328;7.322;2023-01-27T09:27:58;99580.69;;;4.02;98.02
21594;BME280;10959;51.328;7.322;2023-01-27T09:30:27;99573.91;;;3.72;98.06
21594;BME280;10959;51.328;7.322;2023-01-27T09:32:57;99580.88;;;3.85;98.28
21594;BME280;10959;51.328;7.322;2023-01-27T09:35:25;99584.19;;;4.06;98.14
21594;BME280;10959;51.328;7.322;2023-01-27T09:37:53;99600.94;;;4.19;97.43
21594;BME280;10959;51.328;7.322;2023-01-27T09:40:29;99592.22;;;4.03;97.35
21594;BME280;10959;51.328;7.322;2023-01-27T09:43:10;99599.25;;;4.10;97.05
21594;BME280;10959;51.328;7.322;2023-01-27T09:46:05;99593.38;;;3.77;97.80
21594;BME280;10959;51.328;7.322;2023-01-27T09:48:46;99603.78;;;4.05;98.13
21594;BME280;10959;51.328;7.322;2023-01-27T09:51:19;99600.19;;;4.09;97.56
21594;BME280;10959;51.328;7.322;2023-01-27T09:54:07;99611.06;;;3.84;97.69
21594;BME280;10959;51.328;7.322;2023-01-27T09:56:42;99608.25;;;4.01;97.66
21594;BME280;10959;51.328;7.322;2023-01-27T09:59:36;99614.50;;;3.95;97.67
21594;BME280;10959;51.328;7.322;2023-01-27T10:02:13;99618.88;;;4.03;98.33
21594;BME280;10959;51.328;7.322;2023-01-27T10:11:08;99616.25;;;4.00;98.37
21594;BME280;10959;51.328;7.322;2023-01-27T10:13:47;99611.94;;;3.88;98.53
21594;BME280;10959;51.328;7.322;2023-01-27T10:16:40;99618.84;;;4.07;98.30
21594;BME280;10959;51.328;7.322;2023-01-27T10:19:21;99609.09;;;4.05;98.30
21594;BME280;10959;51.328;7.322;2023-01-27T10:22:00;99618.06;;;3.97;98.75
21594;BME280;10959;51.328;7.322;2023-01-27T10:24:41;99614.47;;;4.02;98.88
21594;BME280;10959;51.328;7.322;2023-01-27T10:27:15;99607.38;;;4.01;98.70
21594;BME280;10959;51.328;7.322;2023-01-27T10:29:44;99612.44;;;4.25;98.63
21594;BME280;10959;51.328;7.322;2023-01-27T10:32:19;99609.00;;;4.14;98.25
21594;BME280;10959;51.328;7.322;2023-01-27T10:35:02;99608.78;;;4.32;98.22
21594;BME280;10959;51.328;7.322;2023-01-27T10:37:38;99623.00;;;4.31;98.09
21594;BME280;10959;51.328;7.322;2023-01-27T10:40:13;99619.56;;;4.23;98.18
21594;BME280;10959;51.328;7.322;2023-01-27T10:42:46;99614.25;;;4.23;98.42
21594;BME280;10959;51.328;7.322;2023-01-27T10:45:23;99616.91;;;4.23;98.24
21594;BME280;10959;51.328;7.322;2023-01-27T10:48:02;99617.91;;;4.13;98.22
21594;BME280;10959;51.328;7.322;2023-01-27T10:50:36;99614.31;;;4.14;98.68
21594;BME280;10959;51.328;7.322;2023-01-27T10:53:08;99614.06;;;4.39;98.60
21594;BME280;10959;51.328;7.322;2023-01-27T10:55:39;99613.78;;;4.63;97.69
21594;BME280;10959;51.328;7.322;2023-01-27T10:58:10;99612.13;;;4.53;97.16
21594;BME280;10959;51.328;7.322;2023-01-27T11:00:41;99613.13;;;4.43;97.21
21594;BME280;10959;51.328;7.322;2023-01-27T11:03:11;99610.44;;;4.46;96.96
21594;BME280;10959;51.328;7.322;2023-01-27T11:05:42;99614.94;;;4.39;97.51
21594;BME280;10959;51.328;7.322;2023-01-27T11:08:14;99608.75;;;4.36;97.43
21594;BME280;10959;51.328;7.322;2023-01-27T11:10:45;99612.38;;;4.28;97.74
21594;BME280;10959;51.328;7.322;2023-01-27T11:13:27;99603.47;;;4.32;98.20
21594;BME280;10959;51.328;7.322;2023-01-27T11:15:55;99608.78;;;4.32;98.04
21594;BME280;10959;51.328;7.322;2023-01-27T11:18:25;99601.69;;;4.31;98.20
21594;BME280;10959;51.328;7.322;2023-01-27T11:20:56;99594.63;;;4.30;98.30
21594;BME280;10959;51.328;7.322;2023-01-27T11:23:27;99585.78;;;4.25;98.90
21594;BME280;10959;51.328;7.322;2023-01-27T11:25:59;99592.88;;;4.26;98.26
21594;BME280;10959;51.328;7.322;2023-01-27T11:28:33;99587.38;;;4.42;98.21
21594;BME280;10959;51.328;7.322;2023-01-27T11:31:10;99592.78;;;4.32;97.97
21594;BME280;10959;51.328;7.322;2023-01-27T11:33:47;99588.25;;;4.42;98.07
21594;BME280;10959;51.328;7.322;2023-01-27T11:36:20;99587.28;;;4.48;98.03
21594;BME280;10959;51.328;7.322;2023-01-27T11:38:46;99592.75;;;4.39;98.56
21594;BME280;10959;51.328;7.322;2023-01-27T11:41:13;99580.19;;;4.47;98.26
21594;BME280;10959;51.328;7.322;2023-01-27T11:43:40;99583.63;;;4.55;97.93
21594;BME280;10959;51.328;7.322;2023-01-27T11:46:10;99581.38;;;4.21;97.68
21594;BME280;10959;51.328;7.322;2023-01-27T11:48:41;99585.03;;;4.11;98.84
21594;BME280;10959;51.328;7.322;2023-01-27T11:51:17;99583.28;;;4.10;98.95
21594;BME280;10959;51.328;7.322;2023-01-27T11:53:48;99582.09;;;4.39;99.07
21594;BME280;10959;51.328;7.322;2023-01-27T11:56:17;99578.34;;;4.54;98.54
21594;BME280;10959;51.328;7.322;2023-01-27T11:58:48;99586.63;;;4.29;98.16
21594;BME280;10959;51.328;7.322;2023-01-27T12:01:18;99592.06;;;4.20;98.70
21594;BME280;10959;51.328;7.322;2023-01-27T12:03:52;99591.19;;;4.19;98.64
21594;BME280;10959;51.328;7.322;2023-01-27T12:06:25;99587.66;;;4.14;99.14
21594;BME280;10959;51.328;7.322;2023-01-27T12:08:55;99577.75;;;4.27;98.96
21594;BME280;10959;51.328;7.322;2023-01-27T12:11:24;99584.72;;;4.40;98.76
21594;BME280;10959;51.328;7.322;2023-01-27T12:13:53;99575.47;;;3.91;98.85
21594;BME280;10959;51.328;7.322;2023-01-27T12:16:23;99574.16;;;4.31;98.91
21594;BME280;10959;51.328;7.322;2023-01-27T12:18:56;99573.25;;;4.33;97.84
21594;BME280;10959;51.328;7.322;2023-01-27T12:21:49;99569.78;;;4.25;97.57
21594;BME280;10959;51.328;7.322;2023-01-27T12:24:25;99568.00;;;4.24;97.53
21594;BME280;10959;51.328;7.322;2023-01-27T12:26:53;99568.13;;;4.15;98.00
21594;BME280;10959;51.328;7.322;2023-01-27T12:29:25;99564.41;;;4.28;97.90
21594;BME280;10959;51.328;7.322;2023-01-27T12:31:53;99557.13;;;4.43;97.21
21594;BME280;10959;51.328;7.322;2023-01-27T12:34:24;99551.81;;;4.40;97.04
21594;BME280;10959;51.328;7.322;2023-01-27T12:36:53;99558.66;;;4.62;96.66
21594;BME280;10959;51.328;7.322;2023-01-27T12:39:28;99558.31;;;4.20;96.59
21594;BME280;10959;51.328;7.322;2023-01-27T12:41:56;99555.63;;;4.19;96.89
21594;BME280;10959;51.328;7.322;2023-01-27T12:44:22;99558.94;;;4.41;96.95
21594;BME280;10959;51.328;7.322;2023-01-27T12:46:57;99552.75;;;4.36;96.54
21594;BME280;10959;51.328;7.322;2023-01-27T12:49:30;99551.81;;;4.40;96.67
21594;BME280;10959;51.328;7.322;2023-01-27T12:52:00;99550.81;;;4.48;95.89
21594;BME280;10959;51.328;7.322;2023-01-27T12:54:30;99555.16;;;4.57;95.80
21594;BME280;10959;51.328;7.322;2023-01-27T12:57:01;99558.84;;;4.47;95.28
21594;BME280;10959;51.328;7.322;2023-01-27T12:59:28;99560.38;;;4.66;95.54
21594;BME280;10959;51.328;7.322;2023-01-27T13:02:00;99558.81;;;4.50;95.50
21594;BME280;10959;51.328;7.322;2023-01-27T13:04:28;99564.22;;;4.44;96.06
21594;BME280;10959;51.328;7.322;2023-01-27T13:06:57;99563.34;;;4.45;95.61
21594;BME280;10959;51.328;7.322;2023-01-27T13:09:32;99571.28;;;4.48;95.36
21594;BME280;10959;51.328;7.322;2023-01-27T13:12:01;99569.59;;;4.41;95.83
21594;BME280;10959;51.328;7.322;2023-01-27T13:14:39;99569.91;;;4.16;96.25
21594;BME280;10959;51.328;7.322;2023-01-27T13:17:26;99571.47;;;4.32;95.49
21594;BME280;10959;51.328;7.322;2023-01-27T13:19:55;99569.41;;;4.56;95.22
21594;BME280;10959;51.328;7.322;2023-01-27T13:22:24;99565.88;;;4.54;94.56
21594;BME280;10959;51.328;7.322;2023-01-27T13:24:57;99566.78;;;4.53;94.66
21594;BME280;10959;51.328;7.322;2023-01-27T13:27:37;99574.31;;;4.20;93.88
21594;BME280;10959;51.328;7.322;2023-01-27T13:30:13;99571.63;;;4.20;94.55